Time;durP1;ratioP1;P1;durP2;ratioP2;P2;SDS_P1;SDS_P2;PMS_P1;PMS_P2;Temp;Humidity;BMP_temperature;BMP_pressure;BME280_temperature;BME280_humidity;BME280_pressure;Samples;Min_cycle;Max_cycle;Signal;HPM_P1;HPM_P2
2021/07/25 00:00:45;;;;;;;10.45;6.45;;;;;;;;;;8228094;28;20460;-72
2021/07/25 00:04:50;;;;;;;9.13;6.15;;;;;;;;;;8226454;28;20049;-74
2021/07/25 00:08:55;;;;;;;12.30;7.18;;;;;;;;;;8226335;28;20490;-72
2021/07/25 00:13:00;;;;;;;10.55;6.90;;;;;;;;;;8226458;28;20405;-73
2021/07/25 00:17:04;;;;;;;9.75;6.32;;;;;;;;;;8243651;28;20395;-72
2021/07/25 00:21:09;;;;;;;9.93;6.53;;;;;;;;;;8227987;28;20392;-73
2021/07/25 00:25:18;;;;;;;11.15;6.78;;;;;;;;;;8226269;28;20473;-72
2021/07/25 00:29:25;;;;;;;10.25;6.10;;;;;;;;;;8228092;28;20492;-72
2021/07/25 00:33:31;;;;;;;10.75;6.57;;;;;;;;;;8227103;28;20175;-72
2021/07/25 00:37:37;;;;;;;9.75;6.32;;;;;;;;;;8225578;28;20468;-72
2021/07/25 00:41:42;;;;;;;10.13;6.13;;;;;;;;;;8230535;28;20440;-73
2021/07/25 00:45:47;;;;;;;14.73;6.90;;;;;;;;;;8227804;28;20384;-73
2021/07/25 00:49:52;;;;;;;9.73;6.82;;;;;;;;;;8227308;28;20049;-73
2021/07/25 00:53:58;;;;;;;11.30;6.53;;;;;;;;;;8241637;28;20479;-73
2021/07/25 00:58:02;;;;;;;10.25;6.63;;;;;;;;;;8226637;28;20033;-73
2021/07/25 01:02:08;;;;;;;12.73;7.00;;;;;;;;;;8225513;28;20445;-72
2021/07/25 01:06:33;;;;;;;9.45;6.05;;;;;;;;;;8226489;28;20376;-73
2021/07/25 01:10:38;;;;;;;11.65;6.63;;;;;;;;;;8225604;28;20045;-73
2021/07/25 01:14:44;;;;;;;9.63;6.00;;;;;;;;;;8225460;28;20469;-73
2021/07/25 01:18:50;;;;;;;11.93;6.40;;;;;;;;;;8225814;28;20459;-72
2021/07/25 01:22:57;;;;;;;11.02;6.50;;;;;;;;;;8224307;28;20448;-73
2021/07/25 01:27:02;;;;;;;9.18;6.13;;;;;;;;;;8225488;28;20491;-73
2021/07/25 01:31:15;;;;;;;11.80;6.53;;;;;;;;;;8225881;28;20457;-73
2021/07/25 01:35:20;;;;;;;11.50;5.95;;;;;;;;;;8227683;28;20486;-73
2021/07/25 01:39:27;;;;;;;12.48;6.50;;;;;;;;;;8224443;28;20065;-72
2021/07/25 01:43:37;;;;;;;10.95;6.95;;;;;;;;;;8225470;28;20484;-72
2021/07/25 01:47:43;;;;;;;9.15;6.07;;;;;;;;;;8241632;28;20063;-73
2021/07/25 01:51:47;;;;;;;8.52;5.88;;;;;;;;;;8207843;28;20480;-73
2021/07/25 01:55:52;;;;;;;11.00;6.72;;;;;;;;;;8239739;28;20498;-73
2021/07/25 01:59:57;;;;;;;15.82;6.68;;;;;;;;;;8225792;28;20459;-72
2021/07/25 02:04:02;;;;;;;10.07;6.60;;;;;;;;;;8224160;28;20037;-73
2021/07/25 02:08:07;;;;;;;13.20;5.85;;;;;;;;;;8224703;28;20480;-73
2021/07/25 02:12:12;;;;;;;14.38;6.93;;;;;;;;;;8225917;28;20396;-73
2021/07/25 02:16:17;;;;;;;10.20;6.88;;;;;;;;;;8223503;28;20392;-73
2021/07/25 02:20:22;;;;;;;13.05;6.45;;;;;;;;;;8224843;28;20473;-73
2021/07/25 02:24:27;;;;;;;10.48;7.18;;;;;;;;;;8224767;28;20068;-73
2021/07/25 02:28:32;;;;;;;9.52;6.43;;;;;;;;;;8223793;28;20053;-73
2021/07/25 02:32:37;;;;;;;12.65;6.40;;;;;;;;;;8224544;28;20480;-72
2021/07/25 02:36:42;;;;;;;9.77;6.78;;;;;;;;;;8223111;28;20361;-73
2021/07/25 02:40:48;;;;;;;11.90;6.88;;;;;;;;;;8225938;28;20360;-73
2021/07/25 02:44:53;;;;;;;9.18;6.30;;;;;;;;;;8226165;28;20342;-72
2021/07/25 02:48:58;;;;;;;10.98;6.35;;;;;;;;;;8206362;28;20480;-73
2021/07/25 02:53:03;;;;;;;15.63;6.47;;;;;;;;;;8223851;28;20068;-73
2021/07/25 02:57:08;;;;;;;12.52;6.07;;;;;;;;;;8224613;28;20045;-73
2021/07/25 03:01:14;;;;;;;9.30;5.85;;;;;;;;;;8222879;28;20041;-72
2021/07/25 03:05:20;;;;;;;16.35;6.22;;;;;;;;;;8223840;28;20407;-72
2021/07/25 03:09:24;;;;;;;17.00;6.43;;;;;;;;;;8224018;28;20342;-72
2021/07/25 03:13:29;;;;;;;10.05;5.80;;;;;;;;;;8222496;28;20364;-72
2021/07/25 03:17:34;;;;;;;8.05;5.30;;;;;;;;;;8223633;28;20504;-73
2021/07/25 03:21:39;;;;;;;9.13;5.55;;;;;;;;;;8223685;28;20370;-73
2021/07/25 03:25:44;;;;;;;16.63;6.28;;;;;;;;;;8224229;28;20046;-72
2021/07/25 03:29:49;;;;;;;10.52;6.30;;;;;;;;;;8222568;28;20480;-72
2021/07/25 03:33:54;;;;;;;11.65;5.95;;;;;;;;;;8226119;28;21038;-72
2021/07/25 03:37:59;;;;;;;10.40;6.28;;;;;;;;;;8230653;28;20045;-73
2021/07/25 03:42:06;;;;;;;9.25;6.30;;;;;;;;;;8228334;28;20514;-73
2021/07/25 03:46:11;;;;;;;10.40;5.75;;;;;;;;;;8227950;28;20344;-73
2021/07/25 03:50:16;;;;;;;10.00;5.70;;;;;;;;;;8227616;28;20445;-72
2021/07/25 03:54:21;;;;;;;10.45;5.57;;;;;;;;;;8228780;28;20472;-72
2021/07/25 03:58:26;;;;;;;9.50;5.20;;;;;;;;;;8227631;28;20729;-73
2021/07/25 04:02:31;;;;;;;8.32;5.25;;;;;;;;;;8228205;28;20112;-72
2021/07/25 04:06:36;;;;;;;10.30;5.82;;;;;;;;;;8227544;28;20416;-72
2021/07/25 04:10:44;;;;;;;8.40;5.57;;;;;;;;;;8230439;28;20384;-72
2021/07/25 04:14:49;;;;;;;13.57;6.07;;;;;;;;;;8211055;28;20368;-72
2021/07/25 04:18:54;;;;;;;7.63;5.38;;;;;;;;;;8228665;28;20493;-72
2021/07/25 04:23:01;;;;;;;8.85;5.78;;;;;;;;;;8221114;28;20063;-72
2021/07/25 04:27:07;;;;;;;9.70;5.75;;;;;;;;;;8243696;28;20045;-72
2021/07/25 04:31:12;;;;;;;8.52;5.22;;;;;;;;;;8226867;28;20492;-73
2021/07/25 04:35:18;;;;;;;10.88;5.93;;;;;;;;;;8227716;28;20053;-72
2021/07/25 04:39:23;;;;;;;9.93;5.30;;;;;;;;;;8227106;28;20340;-72
2021/07/25 04:43:32;;;;;;;9.25;5.35;;;;;;;;;;8226887;28;20503;-72
2021/07/25 04:47:50;;;;;;;8.07;5.65;;;;;;;;;;8226606;28;20583;-72
2021/07/25 04:51:56;;;;;;;11.57;6.05;;;;;;;;;;8225803;28;20360;-72
2021/07/25 04:56:02;;;;;;;10.40;5.85;;;;;;;;;;8209989;28;20476;-72
2021/07/25 05:00:15;;;;;;;13.88;4.97;;;;;;;;;;8225465;28;20376;-72
2021/07/25 05:04:22;;;;;;;8.60;5.28;;;;;;;;;;8225724;28;20384;-72
2021/07/25 05:08:27;;;;;;;13.07;5.23;;;;;;;;;;8209442;28;20369;-72
2021/07/25 05:12:58;;;;;;;10.90;5.93;;;;;;;;;;8226864;28;20781;-73
2021/07/25 05:17:13;;;;;;;7.15;5.03;;;;;;;;;;8225226;28;20380;-73
2021/07/25 05:21:26;;;;;;;8.20;4.93;;;;;;;;;;8224776;28;20345;-73
2021/07/25 05:25:32;;;;;;;7.80;5.05;;;;;;;;;;8224509;28;20049;-73
2021/07/25 05:29:36;;;;;;;11.02;4.97;;;;;;;;;;8224295;28;20372;-74
2021/07/25 05:33:41;;;;;;;9.52;4.43;;;;;;;;;;8225980;28;20372;-72
2021/07/25 05:37:46;;;;;;;7.75;4.53;;;;;;;;;;8225693;28;20484;-73
2021/07/25 05:41:51;;;;;;;10.27;4.82;;;;;;;;;;8228250;28;20464;-72
2021/07/25 05:45:57;;;;;;;9.10;4.95;;;;;;;;;;8226492;28;20332;-73
2021/07/25 05:50:02;;;;;;;8.35;4.97;;;;;;;;;;8240709;28;20472;-72
2021/07/25 05:54:07;;;;;;;9.48;4.22;;;;;;;;;;8225787;28;20468;-72
2021/07/25 05:58:12;;;;;;;7.25;4.22;;;;;;;;;;8240348;28;20472;-73
2021/07/25 06:02:17;;;;;;;9.52;4.68;;;;;;;;;;8225974;28;20364;-73
2021/07/25 06:06:23;;;;;;;6.40;4.45;;;;;;;;;;8227452;28;20310;-72
2021/07/25 06:10:29;;;;;;;7.20;4.75;;;;;;;;;;8224778;28;20376;-73
2021/07/25 06:14:34;;;;;;;7.60;4.67;;;;;;;;;;8207975;28;20515;-73
2021/07/25 06:18:39;;;;;;;8.30;4.13;;;;;;;;;;8224422;28;20318;-72
2021/07/25 06:22:53;;;;;;;8.43;4.57;;;;;;;;;;8225219;28;20380;-73
2021/07/25 06:26:58;;;;;;;7.10;4.30;;;;;;;;;;8225488;28;20111;-72
2021/07/25 06:31:03;;;;;;;6.38;3.92;;;;;;;;;;8225014;28;20522;-72
2021/07/25 06:35:09;;;;;;;5.72;4.07;;;;;;;;;;8224391;28;20346;-74
2021/07/25 06:39:15;;;;;;;5.70;3.97;;;;;;;;;;8224623;28;20349;-73
2021/07/25 06:43:21;;;;;;;5.72;3.83;;;;;;;;;;8224992;28;20068;-73
2021/07/25 06:47:30;;;;;;;11.90;4.25;;;;;;;;;;8225120;28;20336;-73
2021/07/25 06:51:34;;;;;;;6.80;4.35;;;;;;;;;;8224129;28;20038;-73
2021/07/25 06:55:38;;;;;;;6.05;3.92;;;;;;;;;;8222361;28;20467;-73
2021/07/25 06:59:42;;;;;;;7.18;3.90;;;;;;;;;;8207635;28;20460;-72
2021/07/25 07:03:48;;;;;;;7.00;3.22;;;;;;;;;;8238744;28;20072;-72
2021/07/25 07:07:55;;;;;;;6.50;3.60;;;;;;;;;;8224067;28;20453;-73
2021/07/25 07:12:01;;;;;;;6.60;3.55;;;;;;;;;;8228413;28;20445;-72
2021/07/25 07:16:06;;;;;;;5.75;3.60;;;;;;;;;;8191315;28;20391;-72
2021/07/25 07:20:12;;;;;;;5.00;3.40;;;;;;;;;;8196251;28;20358;-73
2021/07/25 07:24:18;;;;;;;8.50;3.73;;;;;;;;;;8199625;28;20499;-72
2021/07/25 07:28:23;;;;;;;4.63;3.40;;;;;;;;;;8198243;28;20963;-73
2021/07/25 07:32:28;;;;;;;6.40;3.53;;;;;;;;;;8198704;28;20384;-72
2021/07/25 07:36:33;;;;;;;6.70;3.15;;;;;;;;;;8179915;28;20481;-73
2021/07/25 07:40:39;;;;;;;4.95;2.85;;;;;;;;;;8197586;28;20641;-72
2021/07/25 07:44:44;;;;;;;8.05;3.03;;;;;;;;;;8198129;28;20487;-73
2021/07/25 07:48:49;;;;;;;4.60;2.80;;;;;;;;;;8196336;28;20477;-73
2021/07/25 07:52:55;;;;;;;4.13;2.85;;;;;;;;;;8209857;28;20465;-72
2021/07/25 07:56:59;;;;;;;5.20;2.67;;;;;;;;;;8196954;28;20473;-73
2021/07/25 08:01:05;;;;;;;5.28;2.75;;;;;;;;;;8212001;28;20442;-74
2021/07/25 08:05:11;;;;;;;3.47;2.72;;;;;;;;;;8195895;28;20404;-74
2021/07/25 08:09:16;;;;;;;5.20;2.78;;;;;;;;;;8194854;28;20369;-72
2021/07/25 08:13:21;;;;;;;4.28;2.58;;;;;;;;;;8196038;28;20323;-73
2021/07/25 08:17:27;;;;;;;9.95;2.72;;;;;;;;;;8212111;28;20068;-72
2021/07/25 08:21:31;;;;;;;4.20;2.78;;;;;;;;;;8196307;28;20396;-73
2021/07/25 08:25:37;;;;;;;4.40;2.75;;;;;;;;;;8193844;28;20369;-73
2021/07/25 08:29:43;;;;;;;5.15;2.92;;;;;;;;;;8193172;28;20389;-74
2021/07/25 08:33:48;;;;;;;5.87;2.77;;;;;;;;;;8178582;28;20056;-72
2021/07/25 08:37:53;;;;;;;5.45;2.63;;;;;;;;;;8194025;28;20050;-74
2021/07/25 08:42:01;;;;;;;8.70;3.45;;;;;;;;;;8194353;28;20488;-74
2021/07/25 08:46:32;;;;;;;9.45;2.75;;;;;;;;;;8197102;28;20038;-74
2021/07/25 08:50:42;;;;;;;9.05;3.05;;;;;;;;;;8192869;28;20495;-74
2021/07/25 08:54:48;;;;;;;6.13;3.20;;;;;;;;;;8193737;28;20393;-73
2021/07/25 08:58:54;;;;;;;4.72;3.17;;;;;;;;;;8193660;28;20373;-72
2021/07/25 09:03:00;;;;;;;6.18;3.33;;;;;;;;;;8149039;28;20045;-72
2021/07/25 09:07:05;;;;;;;;;;;;;;;;;;8206303;28;20360;-73
2021/07/25 09:11:09;;;;;;;4.40;2.72;;;;;;;;;;8192599;28;20249;-74
2021/07/25 09:15:17;;;;;;;6.18;3.67;;;;;;;;;;8196080;28;20479;-73
2021/07/25 09:19:20;;;;;;;6.40;3.00;;;;;;;;;;8207501;28;20392;-72
2021/07/25 09:23:26;;;;;;;8.32;3.22;;;;;;;;;;8194298;28;20608;-71
2021/07/25 09:27:32;;;;;;;3.80;2.97;;;;;;;;;;8177235;28;20600;-72
2021/07/25 09:31:36;;;;;;;3.95;2.83;;;;;;;;;;8193131;28;20372;-73
2021/07/25 09:35:42;;;;;;;4.72;3.00;;;;;;;;;;8192585;28;20507;-73
2021/07/25 09:39:48;;;;;;;4.78;3.00;;;;;;;;;;8191663;28;20461;-73
2021/07/25 09:43:57;;;;;;;4.85;3.35;;;;;;;;;;8193690;28;20354;-73
2021/07/25 09:48:25;;;;;;;4.32;3.55;;;;;;;;;;8159212;28;20353;-73
2021/07/25 09:52:35;;;;;;;3.78;3.13;;;;;;;;;;8193044;28;20400;-72
2021/07/25 09:56:40;;;;;;;4.95;3.45;;;;;;;;;;8175354;28;20476;-73
2021/07/25 10:00:47;;;;;;;7.07;3.80;;;;;;;;;;8191075;28;20384;-73
2021/07/25 10:05:19;;;;;;;7.05;3.90;;;;;;;;;;8190923;28;20385;-73
2021/07/25 10:09:25;;;;;;;5.25;3.65;;;;;;;;;;8193283;28;20468;-73
2021/07/25 10:13:30;;;;;;;5.43;3.78;;;;;;;;;;8175918;28;20353;-72
2021/07/25 10:17:38;;;;;;;5.22;3.72;;;;;;;;;;8192245;28;20053;-73
2021/07/25 10:21:42;;;;;;;7.75;4.07;;;;;;;;;;8191405;28;20362;-73
2021/07/25 10:25:51;;;;;;;10.23;3.72;;;;;;;;;;8175916;28;20461;-72
2021/07/25 10:30:00;;;;;;;7.97;4.40;;;;;;;;;;8190629;28;20577;-73
2021/07/25 10:34:11;;;;;;;5.25;4.15;;;;;;;;;;8191182;28;20368;-73
2021/07/25 10:38:16;;;;;;;10.90;4.20;;;;;;;;;;8192441;28;20368;-74
2021/07/25 10:42:26;;;;;;;7.63;4.00;;;;;;;;;;8192507;28;20428;-73
2021/07/25 10:46:32;;;;;;;7.35;4.07;;;;;;;;;;8198084;28;20616;-73
2021/07/25 10:50:37;;;;;;;5.95;4.20;;;;;;;;;;8197199;28;20373;-73
2021/07/25 10:54:48;;;;;;;12.75;4.53;;;;;;;;;;8197749;28;20318;-74
2021/07/25 10:58:54;;;;;;;9.77;4.50;;;;;;;;;;8162819;28;20452;-72
2021/07/25 11:04:51;;;;;;;10.10;4.50;;;;;;;;;;7909298;27;188079;-72
2021/07/25 11:08:57;;;;;;;8.43;5.10;;;;;;;;;;8173174;28;20356;-74
2021/07/25 11:13:02;;;;;;;7.80;5.20;;;;;;;;;;8252582;28;20392;-69
2021/07/25 11:17:08;;;;;;;11.23;4.85;;;;;;;;;;8251035;28;20045;-70
2021/07/25 11:21:40;;;;;;;9.45;5.10;;;;;;;;;;8250456;28;20491;-72
2021/07/25 11:25:51;;;;;;;8.48;4.97;;;;;;;;;;8251323;28;20414;-72
2021/07/25 11:29:56;;;;;;;13.20;6.05;;;;;;;;;;8252442;28;20479;-73
2021/07/25 11:34:00;;;;;;;10.45;5.18;;;;;;;;;;8253494;28;20352;-75
2021/07/25 11:38:12;;;;;;;8.13;5.88;;;;;;;;;;8226153;28;20403;-74
2021/07/25 11:42:19;;;;;;;7.78;5.82;;;;;;;;;;8236859;28;20501;-75
2021/07/25 11:46:29;;;;;;;9.80;6.15;;;;;;;;;;8218694;28;20041;-74
2021/07/25 11:50:43;;;;;;;10.63;6.15;;;;;;;;;;8213246;28;20079;-74
2021/07/25 11:54:48;;;;;;;9.13;6.63;;;;;;;;;;8233770;28;20384;-75
2021/07/25 11:59:09;;;;;;;9.63;5.72;;;;;;;;;;8217087;28;20065;-74
2021/07/25 12:03:14;;;;;;;9.88;6.28;;;;;;;;;;8217442;28;20388;-74
2021/07/25 12:07:21;;;;;;;7.90;5.60;;;;;;;;;;8170069;28;20389;-75
2021/07/25 12:11:26;;;;;;;8.65;5.75;;;;;;;;;;8199227;28;20599;-74
2021/07/25 12:15:33;;;;;;;7.35;5.88;;;;;;;;;;8224054;28;20563;-75
2021/07/25 12:19:44;;;;;;;8.63;5.35;;;;;;;;;;8243131;28;20348;-73
2021/07/25 12:23:50;;;;;;;10.52;6.38;;;;;;;;;;8227444;28;20045;-74
2021/07/25 12:28:12;;;;;;;7.22;5.40;;;;;;;;;;8228831;28;20041;-74
2021/07/25 12:32:34;;;;;;;8.95;6.32;;;;;;;;;;8226948;28;20372;-73
2021/07/25 12:36:40;;;;;;;7.65;5.07;;;;;;;;;;8231233;28;20356;-73
2021/07/25 12:40:52;;;;;;;6.30;5.25;;;;;;;;;;8233346;28;20479;-73
2021/07/25 12:45:17;;;;;;;7.38;5.25;;;;;;;;;;8213176;28;20372;-73
2021/07/25 12:49:22;;;;;;;5.57;4.72;;;;;;;;;;8244673;28;20464;-73
2021/07/25 12:53:32;;;;;;;7.60;5.30;;;;;;;;;;8227279;28;20368;-74
2021/07/25 12:57:38;;;;;;;7.00;4.63;;;;;;;;;;8211393;28;20411;-73
2021/07/25 13:06:03;;;;;;;9.15;5.47;;;;;;;;;;8241937;28;20512;-73
2021/07/25 13:10:10;;;;;;;14.02;5.05;;;;;;;;;;8226424;28;20368;-73
2021/07/25 13:14:27;;;;;;;7.53;5.43;;;;;;;;;;8226287;28;20360;-73
2021/07/25 13:18:33;;;;;;;7.27;5.27;;;;;;;;;;8243289;28;20494;-73
2021/07/25 13:22:38;;;;;;;6.88;5.10;;;;;;;;;;8226180;28;20377;-74
2021/07/25 13:26:44;;;;;;;12.18;5.97;;;;;;;;;;8187084;28;20042;-73
2021/07/25 13:30:50;;;;;;;9.90;5.20;;;;;;;;;;8222259;28;20521;-73
2021/07/25 13:34:56;;;;;;;7.43;5.13;;;;;;;;;;8193086;28;20038;-73
2021/07/25 13:39:01;;;;;;;8.43;5.40;;;;;;;;;;8196654;28;20457;-74
2021/07/25 13:43:11;;;;;;;10.25;5.53;;;;;;;;;;8195525;28;20479;-73
2021/07/25 13:47:16;;;;;;;15.00;5.50;;;;;;;;;;8192375;28;20080;-73
2021/07/25 13:51:25;;;;;;;8.30;5.20;;;;;;;;;;8160884;28;20404;-73
2021/07/25 13:55:33;;;;;;;8.25;5.68;;;;;;;;;;8194078;28;20045;-74
2021/07/25 13:59:38;;;;;;;12.63;6.10;;;;;;;;;;8192904;28;20453;-73
2021/07/25 14:03:43;;;;;;;10.88;5.82;;;;;;;;;;8191355;28;20462;-73
2021/07/25 14:07:53;;;;;;;8.15;5.88;;;;;;;;;;8192151;28;20357;-73
2021/07/25 14:11:59;;;;;;;9.10;6.35;;;;;;;;;;8196090;28;20404;-72
2021/07/25 14:16:04;;;;;;;11.23;6.80;;;;;;;;;;8193839;28;20433;-73
2021/07/25 14:20:13;;;;;;;24.38;13.70;;;;;;;;;;8191476;28;20365;-73
2021/07/25 14:24:18;;;;;;;18.73;11.48;;;;;;;;;;8176115;28;20359;-73
2021/07/25 14:28:24;;;;;;;11.93;8.73;;;;;;;;;;8193329;28;20360;-74
2021/07/25 14:32:29;;;;;;;11.45;5.32;;;;;;;;;;8192553;28;20373;-74
2021/07/25 14:36:34;;;;;;;15.40;8.40;;;;;;;;;;8193143;28;20477;-73
2021/07/25 14:40:40;;;;;;;13.85;7.63;;;;;;;;;;8194470;28;20377;-73
2021/07/25 14:44:46;;;;;;;17.90;10.15;;;;;;;;;;8193126;28;20491;-73
2021/07/25 14:48:51;;;;;;;9.77;5.28;;;;;;;;;;8192134;28;20046;-73
2021/07/25 14:52:56;;;;;;;10.40;6.25;;;;;;;;;;8206957;28;20381;-73
2021/07/25 14:57:02;;;;;;;9.25;5.55;;;;;;;;;;8194656;28;20034;-73
2021/07/25 15:01:16;;;;;;;5.90;4.43;;;;;;;;;;8200228;28;20340;-74
2021/07/25 15:05:21;;;;;;;6.00;4.57;;;;;;;;;;8227050;28;20351;-73
2021/07/25 15:09:27;;;;;;;6.45;5.18;;;;;;;;;;8225258;28;20053;-73
2021/07/25 15:13:34;;;;;;;7.28;5.53;;;;;;;;;;8225132;28;20488;-73
2021/07/25 15:17:39;;;;;;;7.43;4.93;;;;;;;;;;8225173;28;20365;-73
2021/07/25 15:21:44;;;;;;;7.60;5.57;;;;;;;;;;8226213;28;20369;-73
2021/07/25 15:25:50;;;;;;;10.52;5.55;;;;;;;;;;8226517;28;20348;-73
2021/07/25 15:29:55;;;;;;;7.38;5.38;;;;;;;;;;8225018;28;20041;-73
2021/07/25 15:34:00;;;;;;;8.18;5.75;;;;;;;;;;8207260;28;20462;-73
2021/07/25 15:38:06;;;;;;;8.75;5.50;;;;;;;;;;8206969;28;20364;-73
2021/07/25 15:42:12;;;;;;;6.88;4.82;;;;;;;;;;8225517;28;20376;-73
2021/07/25 15:46:21;;;;;;;8.55;4.85;;;;;;;;;;8208502;28;20469;-74
2021/07/25 15:50:27;;;;;;;6.55;4.93;;;;;;;;;;8230417;28;20460;-74
2021/07/25 15:54:32;;;;;;;8.18;5.25;;;;;;;;;;8232266;28;20063;-73
2021/07/25 15:58:37;;;;;;;6.30;4.95;;;;;;;;;;8213366;28;20048;-73
2021/07/25 16:02:42;;;;;;;9.55;5.35;;;;;;;;;;8228945;28;20076;-72
2021/07/25 16:06:48;;;;;;;17.00;6.05;;;;;;;;;;8196236;28;20487;-73
2021/07/25 16:10:53;;;;;;;8.15;5.07;;;;;;;;;;8229225;28;20391;-73
2021/07/25 16:14:58;;;;;;;10.68;5.45;;;;;;;;;;8229335;28;20468;-73
2021/07/25 16:19:03;;;;;;;8.55;5.35;;;;;;;;;;8210758;28;20379;-72
2021/07/25 16:23:08;;;;;;;8.00;5.22;;;;;;;;;;8226704;28;20396;-74
2021/07/25 16:27:13;;;;;;;9.13;5.65;;;;;;;;;;8229196;28;20076;-74
2021/07/25 16:31:20;;;;;;;7.30;5.70;;;;;;;;;;8229779;28;20376;-73
2021/07/25 16:35:25;;;;;;;8.53;5.53;;;;;;;;;;8226998;28;20465;-74
2021/07/25 16:39:30;;;;;;;8.32;5.00;;;;;;;;;;8228540;28;20380;-73
2021/07/25 16:43:35;;;;;;;8.00;4.82;;;;;;;;;;8207969;28;20477;-72
2021/07/25 16:47:40;;;;;;;10.57;5.63;;;;;;;;;;8209187;28;20419;-72
2021/07/25 16:51:45;;;;;;;6.60;5.20;;;;;;;;;;8163482;28;20389;-72
2021/07/25 16:55:51;;;;;;;12.93;5.47;;;;;;;;;;8226387;28;20491;-73
2021/07/25 16:59:55;;;;;;;8.23;5.25;;;;;;;;;;8210530;28;20376;-72
2021/07/25 17:04:00;;;;;;;8.52;4.93;;;;;;;;;;8210152;28;20395;-72
2021/07/25 17:08:06;;;;;;;8.88;5.18;;;;;;;;;;8227447;28;20360;-73
2021/07/25 17:12:11;;;;;;;6.65;4.55;;;;;;;;;;8211312;28;20098;-72
2021/07/25 17:16:26;;;;;;;7.38;5.05;;;;;;;;;;8211436;28;20360;-73
2021/07/25 17:20:31;;;;;;;8.25;5.28;;;;;;;;;;8225600;28;20483;-73
2021/07/25 17:24:36;;;;;;;10.02;4.35;;;;;;;;;;8209821;28;20425;-73
2021/07/25 17:28:44;;;;;;;8.75;5.30;;;;;;;;;;8176355;28;20420;-72
2021/07/25 17:32:49;;;;;;;9.02;4.93;;;;;;;;;;8174806;28;20352;-74
2021/07/25 17:36:54;;;;;;;8.00;4.88;;;;;;;;;;8225984;28;20472;-74
2021/07/25 17:40:59;;;;;;;7.47;4.55;;;;;;;;;;8241288;28;20364;-73
2021/07/25 17:45:04;;;;;;;7.57;4.53;;;;;;;;;;8209588;28;20495;-73
2021/07/25 17:49:09;;;;;;;7.28;4.35;;;;;;;;;;8228745;28;20368;-74
2021/07/25 17:53:14;;;;;;;5.93;4.38;;;;;;;;;;8226811;28;20328;-73
2021/07/25 17:57:19;;;;;;;9.02;6.57;;;;;;;;;;8227513;28;20391;-74
2021/07/25 18:01:25;;;;;;;9.48;6.53;;;;;;;;;;8228560;28;20368;-74
2021/07/25 18:05:31;;;;;;;8.57;4.80;;;;;;;;;;8208883;28;20583;-74
2021/07/25 18:09:36;;;;;;;5.78;4.03;;;;;;;;;;8208984;28;20365;-72
2021/07/25 18:13:42;;;;;;;6.80;3.70;;;;;;;;;;7965730;28;5001671;-73
2021/07/25 18:17:47;;;;;;;8.15;4.22;;;;;;;;;;8203964;28;20468;-73
2021/07/25 18:21:52;;;;;;;6.60;4.43;;;;;;;;;;8207668;28;20499;-73
2021/07/25 18:25:57;;;;;;;6.40;4.40;;;;;;;;;;8207575;28;20488;-74
2021/07/25 18:30:03;;;;;;;6.88;5.00;;;;;;;;;;8226604;28;20511;-73
2021/07/25 18:34:08;;;;;;;6.60;3.80;;;;;;;;;;8226778;28;20380;-73
2021/07/25 18:38:13;;;;;;;5.30;4.00;;;;;;;;;;8225119;28;20349;-72
2021/07/25 18:42:19;;;;;;;10.43;4.55;;;;;;;;;;8227822;28;20145;-72
2021/07/25 18:46:23;;;;;;;6.53;3.70;;;;;;;;;;8207765;28;20469;-73
2021/07/25 18:50:28;;;;;;;8.38;4.10;;;;;;;;;;8207700;28;20372;-73
2021/07/25 18:54:33;;;;;;;8.52;4.15;;;;;;;;;;8224349;28;20392;-73
2021/07/25 18:58:40;;;;;;;6.72;4.38;;;;;;;;;;8225150;28;20357;-73
2021/07/25 19:02:45;;;;;;;6.00;3.90;;;;;;;;;;8224389;28;20468;-73
2021/07/25 19:06:52;;;;;;;6.20;3.97;;;;;;;;;;8208179;28;20053;-73
2021/07/25 19:10:55;;;;;;;7.05;3.72;;;;;;;;;;8206546;28;20365;-73
2021/07/25 19:15:02;;;;;;;7.00;4.03;;;;;;;;;;8223254;28;20096;-73
2021/07/25 19:19:07;;;;;;;6.45;4.03;;;;;;;;;;8226209;28;20053;-74
2021/07/25 19:23:12;;;;;;;5.97;3.58;;;;;;;;;;8161558;28;20042;-73
2021/07/25 19:27:17;;;;;;;7.82;4.43;;;;;;;;;;8213725;28;20346;-73
2021/07/25 19:31:21;;;;;;;5.97;4.15;;;;;;;;;;8233312;28;20453;-73
2021/07/25 19:35:28;;;;;;;8.70;4.35;;;;;;;;;;8212185;28;20490;-73
2021/07/25 19:39:33;;;;;;;6.90;4.18;;;;;;;;;;8214626;28;20072;-74
2021/07/25 19:43:39;;;;;;;6.32;4.20;;;;;;;;;;8230689;28;20368;-73
2021/07/25 19:47:44;;;;;;;6.80;4.38;;;;;;;;;;8232518;28;20361;-73
2021/07/25 19:51:49;;;;;;;7.65;3.92;;;;;;;;;;8211535;28;20353;-73
2021/07/25 19:55:54;;;;;;;6.45;4.10;;;;;;;;;;8212171;28;20485;-73
2021/07/25 19:59:59;;;;;;;13.52;4.10;;;;;;;;;;8212569;28;20064;-74
2021/07/25 20:04:14;;;;;;;8.20;4.25;;;;;;;;;;8230400;28;20403;-72
2021/07/25 20:08:34;;;;;;;11.85;3.92;;;;;;;;;;8213374;28;20083;-73
2021/07/25 20:12:42;;;;;;;7.10;4.37;;;;;;;;;;8196187;28;20318;-73
2021/07/25 20:16:47;;;;;;;;;;;;;;;;;;8230627;28;20360;-72
2021/07/25 20:20:58;;;;;;;6.80;3.72;;;;;;;;;;8211912;28;20391;-73
2021/07/25 20:25:03;;;;;;;7.82;4.68;;;;;;;;;;8210780;28;20353;-72
2021/07/25 20:29:08;;;;;;;6.90;3.90;;;;;;;;;;8229061;28;20491;-72
2021/07/25 20:33:12;;;;;;;7.55;4.30;;;;;;;;;;8211489;28;20041;-73
2021/07/25 20:37:17;;;;;;;5.10;3.88;;;;;;;;;;8213120;28;20449;-72
2021/07/25 20:41:26;;;;;;;6.70;4.10;;;;;;;;;;8228343;28;20506;-73
2021/07/25 20:45:33;;;;;;;7.22;3.80;;;;;;;;;;8212072;28;20387;-72
2021/07/25 20:49:38;;;;;;;5.22;3.63;;;;;;;;;;8195209;28;20460;-74
2021/07/25 20:53:44;;;;;;;7.45;4.38;;;;;;;;;;8228803;28;20378;-73
2021/07/25 20:57:50;;;;;;;8.75;4.32;;;;;;;;;;8211365;28;20488;-73
2021/07/25 21:01:55;;;;;;;8.13;4.47;;;;;;;;;;8230401;28;20475;-74
2021/07/25 21:06:01;;;;;;;7.18;3.97;;;;;;;;;;8211180;28;20360;-73
2021/07/25 21:10:07;;;;;;;5.60;3.97;;;;;;;;;;8228721;28;20373;-73
2021/07/25 21:14:13;;;;;;;6.35;3.83;;;;;;;;;;8194628;28;20475;-73
2021/07/25 21:18:18;;;;;;;7.47;4.30;;;;;;;;;;8230611;28;20337;-73
2021/07/25 21:22:24;;;;;;;7.20;4.00;;;;;;;;;;8227130;28;20495;-73
2021/07/25 21:26:29;;;;;;;7.93;4.20;;;;;;;;;;8211793;28;20364;-71
2021/07/25 21:30:35;;;;;;;5.78;4.13;;;;;;;;;;8227999;28;20149;-71
2021/07/25 21:34:39;;;;;;;7.20;4.20;;;;;;;;;;8227245;28;20686;-72
2021/07/25 21:38:44;;;;;;;6.03;4.30;;;;;;;;;;8226301;28;20363;-71
2021/07/25 21:42:50;;;;;;;8.65;4.45;;;;;;;;;;8226601;28;20354;-72
2021/07/25 21:46:55;;;;;;;5.78;4.10;;;;;;;;;;8226372;28;20499;-71
2021/07/25 21:51:00;;;;;;;7.63;4.80;;;;;;;;;;8209760;28;20480;-72
2021/07/25 21:55:05;;;;;;;8.40;4.15;;;;;;;;;;8227492;28;20523;-72
2021/07/25 21:59:10;;;;;;;10.98;4.60;;;;;;;;;;8226705;28;20072;-72
2021/07/25 22:03:36;;;;;;;8.40;4.50;;;;;;;;;;8226948;28;20376;-72
2021/07/25 22:07:40;;;;;;;19.70;4.38;;;;;;;;;;8211987;28;20447;-72
2021/07/25 22:11:45;;;;;;;7.95;4.50;;;;;;;;;;8226629;28;20475;-73
2021/07/25 22:15:50;;;;;;;8.38;4.75;;;;;;;;;;8208736;28;20522;-74
2021/07/25 22:19:54;;;;;;;7.47;4.30;;;;;;;;;;8226168;28;20045;-72
2021/07/25 22:24:01;;;;;;;11.30;5.32;;;;;;;;;;8225644;28;20453;-72
2021/07/25 22:28:06;;;;;;;7.55;4.80;;;;;;;;;;8209169;28;20530;-72
2021/07/25 22:32:11;;;;;;;6.88;4.13;;;;;;;;;;8225836;28;20484;-73
2021/07/25 22:36:17;;;;;;;12.20;4.93;;;;;;;;;;8226649;28;20131;-74
2021/07/25 22:40:22;;;;;;;6.75;5.10;;;;;;;;;;8207938;28;20350;-72
2021/07/25 22:44:27;;;;;;;6.65;4.60;;;;;;;;;;8229699;28;20472;-72
2021/07/25 22:48:33;;;;;;;11.23;5.10;;;;;;;;;;8225763;28;20495;-72
2021/07/25 22:52:39;;;;;;;8.95;5.13;;;;;;;;;;8209629;28;20461;-73
2021/07/25 22:56:44;;;;;;;7.60;4.07;;;;;;;;;;8192689;28;20499;-72
2021/07/25 23:00:50;;;;;;;8.38;4.93;;;;;;;;;;8224521;28;20460;-72
2021/07/25 23:04:58;;;;;;;5.88;4.18;;;;;;;;;;8192264;28;20376;-73
2021/07/25 23:09:05;;;;;;;7.70;4.30;;;;;;;;;;8224239;28;20361;-72
2021/07/25 23:13:10;;;;;;;7.50;4.75;;;;;;;;;;8207439;28;20034;-73
2021/07/25 23:17:14;;;;;;;8.90;5.00;;;;;;;;;;8209317;28;20388;-72
2021/07/25 23:21:18;;;;;;;12.40;4.75;;;;;;;;;;8191143;28;20475;-73
2021/07/25 23:25:23;;;;;;;6.80;3.80;;;;;;;;;;8225486;28;20349;-72
2021/07/25 23:29:28;;;;;;;6.57;4.22;;;;;;;;;;8225981;28;20372;-72
2021/07/25 23:33:33;;;;;;;11.15;5.13;;;;;;;;;;8207105;28;20478;-71
2021/07/25 23:37:38;;;;;;;10.00;4.43;;;;;;;;;;8222024;28;20528;-73
2021/07/25 23:41:43;;;;;;;9.10;4.47;;;;;;;;;;8223547;28;20361;-72
2021/07/25 23:45:49;;;;;;;6.70;4.20;;;;;;;;;;8225796;28;20352;-72
2021/07/25 23:49:54;;;;;;;7.80;4.80;;;;;;;;;;8205925;28;20468;-73
2021/07/25 23:53:59;;;;;;;10.15;4.50;;;;;;;;;;8223590;28;20388;-72
2021/07/25 23:58:04;;;;;;;7.32;5.40;;;;;;;;;;8224519;28;20488;-72
